Terminal Aerodrome Forecast
Issued by NWS Cleveland, OH

Home | Current Version | Previous Version | Graphics & Text | Print | Product List | Glossary On
Versions: 1 2 3 4 5 6 7 8 9 10 11 12 13 14 15
000
FTUS41 KCLE 282332
TAFMFD
TAF
KMFD 282332Z 2900/2924 22010KT P6SM VCSH SCT050 BKN100
     FM290200 19005KT P6SM SCT050 BKN100
     FM290800 19005KT 4SM BR SCT250
     FM291200 20007KT P6SM VCSH BKN060 BKN120
     FM291900 20011KT P6SM BKN040 BKN120 PROB30 2922/2924 5SM -TSRA
      BR BKN035CB=

USA.gov is the U.S. government's official web portal to all federal, state and local government web resources and services.